Time;durP1;ratioP1;P1;durP2;ratioP2;P2;SDS_P1;SDS_P2;PMS_P1;PMS_P2;Temp;Humidity;BMP_temperature;BMP_pressure;BME280_temperature;BME280_humidity;BME280_pressure;Samples;Min_cycle;Max_cycle;Signal;HPM_P1;HPM_P2
2022/06/16 00:00:23;;;;;;;7.60;3.50;;;14.50;99.90;;;;;;4978658;28;20039;-75
2022/06/16 00:02:50;;;;;;;6.75;4.00;;;14.40;99.90;;;;;;4974055;28;20050;-75
2022/06/16 00:05:20;;;;;;;7.05;3.65;;;14.30;99.90;;;;;;4993219;28;20043;-74
2022/06/16 00:07:46;;;;;;;5.05;3.63;;;14.40;99.90;;;;;;4968251;28;20163;-75
2022/06/16 00:10:13;;;;;;;5.82;3.28;;;14.30;99.90;;;;;;4975362;28;20153;-75
2022/06/16 00:12:39;;;;;;;7.78;4.05;;;14.30;99.90;;;;;;4980219;28;20609;-75
2022/06/16 00:15:08;;;;;;;7.28;3.97;;;14.30;99.90;;;;;;4977571;28;20445;-75
2022/06/16 00:17:34;;;;;;;11.40;4.35;;;14.30;99.90;;;;;;4979158;28;20043;-75
2022/06/16 00:20:01;;;;;;;6.05;4.18;;;14.30;99.90;;;;;;4982003;28;20600;-75
2022/06/16 00:22:27;;;;;;;7.03;4.38;;;14.20;99.90;;;;;;4979403;28;20077;-75
2022/06/16 00:24:54;;;;;;;6.22;3.72;;;14.20;99.90;;;;;;4974698;28;20073;-75
2022/06/16 00:27:19;;;;;;;7.28;4.60;;;14.20;99.90;;;;;;4972210;28;20448;-75
2022/06/16 00:29:45;;;;;;;8.75;4.57;;;14.10;99.90;;;;;;4979467;28;20038;-75
2022/06/16 00:32:11;;;;;;;9.18;4.10;;;14.10;99.90;;;;;;4982437;28;20038;-75
2022/06/16 00:34:36;;;;;;;7.68;3.97;;;14.10;99.90;;;;;;4974017;28;20502;-75
2022/06/16 00:37:02;;;;;;;8.30;4.10;;;14.20;99.90;;;;;;4979625;28;20076;-75
2022/06/16 00:39:28;;;;;;;9.40;4.18;;;14.10;99.90;;;;;;4979354;28;20026;-75
2022/06/16 00:41:55;;;;;;;6.88;3.63;;;14.10;99.90;;;;;;4985116;28;20462;-76
2022/06/16 00:44:20;;;;;;;10.07;3.53;;;14.10;99.90;;;;;;4983081;28;20046;-75
2022/06/16 00:46:46;;;;;;;6.95;3.38;;;14.10;99.90;;;;;;4983051;28;20043;-74
2022/06/16 00:49:13;;;;;;;8.27;3.97;;;14.20;99.90;;;;;;4980959;28;20078;-75
2022/06/16 00:51:54;;;;;;;8.95;4.28;;;14.10;99.90;;;;;;4978875;28;20054;-75
2022/06/16 00:54:26;;;;;;;6.18;3.60;;;14.10;99.90;;;;;;4973077;28;20031;-75
2022/06/16 00:56:56;;;;;;;5.78;3.40;;;14.10;99.90;;;;;;5003847;28;20144;-75
2022/06/16 00:59:23;;;;;;;8.68;3.53;;;14.10;99.90;;;;;;4987170;28;20038;-75
2022/06/16 01:01:50;;;;;;;9.35;4.00;;;14.30;99.90;;;;;;4981069;28;20051;-75
2022/06/16 01:07:08;;;;;;;9.50;4.40;;;14.10;99.90;;;;;;5006456;28;20047;-75
2022/06/16 01:09:35;;;;;;;11.40;4.15;;;14.10;99.90;;;;;;4995150;28;20042;-75
2022/06/16 01:15:32;;;;;;;14.45;4.90;;;14.00;99.90;;;;;;4973218;28;20038;-75
2022/06/16 01:18:06;;;;;;;7.57;3.85;;;14.00;99.90;;;;;;4978088;28;20046;-75
2022/06/16 01:20:49;;;;;;;6.97;4.18;;;14.00;99.90;;;;;;4984610;28;20058;-75
2022/06/16 01:23:32;;;;;;;9.48;3.65;;;13.90;99.90;;;;;;4978063;28;20080;-75
2022/06/16 01:26:13;;;;;;;7.82;4.10;;;13.90;99.90;;;;;;4975111;28;20355;-75
2022/06/16 01:29:29;;;;;;;7.00;3.93;;;13.90;99.90;;;;;;4981420;28;20046;-75
2022/06/16 01:32:07;;;;;;;9.70;4.40;;;14.00;99.90;;;;;;4978626;28;20054;-75
2022/06/16 01:34:45;;;;;;;9.23;4.00;;;13.90;99.90;;;;;;4979191;28;20053;-75
2022/06/16 01:37:23;;;;;;;7.75;3.97;;;13.80;99.90;;;;;;4978794;28;20070;-75
2022/06/16 01:40:30;;;;;;;9.48;3.85;;;13.70;99.90;;;;;;4979129;28;20039;-75
2022/06/16 01:43:12;;;;;;;10.48;4.10;;;13.70;99.90;;;;;;5001996;28;20054;-75
2022/06/16 01:45:38;;;;;;;7.70;3.97;;;13.70;99.90;;;;;;4971474;28;20104;-75
2022/06/16 01:48:07;;;;;;;9.27;3.97;;;13.80;99.90;;;;;;4975821;28;20038;-75
2022/06/16 01:50:40;;;;;;;5.55;3.65;;;13.70;99.90;;;;;;4987951;28;20042;-75
2022/06/16 01:53:14;;;;;;;7.38;4.03;;;13.80;99.90;;;;;;4974116;28;20112;-75
2022/06/16 01:55:46;;;;;;;8.93;4.05;;;13.70;99.90;;;;;;4958723;28;20519;-74
2022/06/16 01:58:43;;;;;;;7.55;3.78;;;13.70;99.90;;;;;;4978835;28;20054;-74
2022/06/16 02:01:12;;;;;;;8.25;3.90;;;13.70;99.90;;;;;;4966228;28;20061;-75
2022/06/16 02:03:43;;;;;;;6.40;4.10;;;13.70;99.90;;;;;;4980314;28;20039;-75
2022/06/16 02:06:21;;;;;;;7.25;3.60;;;13.70;99.90;;;;;;4978215;28;20060;-75
2022/06/16 02:08:51;;;;;;;11.32;3.60;;;13.80;99.90;;;;;;4983862;28;20144;-75
2022/06/16 02:11:30;;;;;;;9.43;3.80;;;13.80;99.90;;;;;;4975620;28;20130;-75
2022/06/16 02:14:22;;;;;;;9.00;4.10;;;13.90;99.90;;;;;;4975272;28;20052;-75
2022/06/16 02:16:49;;;;;;;5.60;3.53;;;13.80;99.90;;;;;;4970411;28;20050;-75
2022/06/16 02:19:19;;;;;;;7.82;3.22;;;13.80;99.90;;;;;;4976299;28;20312;-74
2022/06/16 02:21:50;;;;;;;8.98;4.30;;;13.80;99.90;;;;;;4970102;28;20405;-76
2022/06/16 02:24:19;;;;;;;6.20;3.50;;;13.80;99.90;;;;;;4975938;28;20050;-76
2022/06/16 02:26:45;;;;;;;7.68;3.10;;;13.80;99.90;;;;;;4968175;28;20094;-76
2022/06/16 02:29:37;;;;;;;6.85;3.67;;;13.90;99.90;;;;;;4979693;28;20034;-76
2022/06/16 02:32:37;;;;;;;7.72;3.15;;;13.90;99.90;;;;;;4970486;28;20129;-76
2022/06/16 02:35:28;;;;;;;7.15;3.30;;;13.90;99.90;;;;;;4970769;28;20038;-76
2022/06/16 02:37:53;;;;;;;5.50;3.15;;;13.90;99.90;;;;;;4970009;28;20164;-76
2022/06/16 02:40:41;;;;;;;8.55;3.75;;;13.90;99.90;;;;;;4976373;28;20490;-76
2022/06/16 02:43:27;;;;;;;7.57;3.45;;;13.90;99.90;;;;;;4977893;28;20085;-76
2022/06/16 02:46:22;;;;;;;8.10;3.00;;;13.80;99.90;;;;;;4976450;28;20070;-76
2022/06/16 02:48:48;;;;;;;8.63;2.85;;;13.80;99.90;;;;;;4980418;28;20452;-76
2022/06/16 02:51:32;;;;;;;6.70;3.13;;;13.70;99.90;;;;;;4971581;28;20043;-76
2022/06/16 02:54:20;;;;;;;8.70;3.40;;;13.70;99.90;;;;;;4974609;28;20065;-76
2022/06/16 02:57:20;;;;;;;5.47;3.33;;;13.70;99.90;;;;;;4979927;28;20042;-76
2022/06/16 03:00:01;;;;;;;7.13;2.75;;;13.70;99.90;;;;;;4974718;28;20042;-76
2022/06/16 03:02:28;;;;;;;5.75;2.90;;;13.60;99.90;;;;;;4978245;28;20038;-75
2022/06/16 03:05:00;;;;;;;8.20;3.28;;;13.60;99.90;;;;;;4979195;28;20715;-76
2022/06/16 03:07:27;;;;;;;6.25;2.72;;;13.60;99.90;;;;;;4969407;28;20086;-76
2022/06/16 03:09:54;;;;;;;5.85;3.03;;;13.60;99.90;;;;;;4975326;28;20473;-75
2022/06/16 03:12:20;;;;;;;5.38;2.70;;;13.50;99.90;;;;;;4974395;28;20121;-76
2022/06/16 03:14:45;;;;;;;8.35;3.08;;;13.50;99.90;;;;;;4982332;28;20139;-76
2022/06/16 03:17:12;;;;;;;6.38;3.08;;;13.60;99.90;;;;;;4985939;28;20047;-76
2022/06/16 03:19:39;;;;;;;6.15;2.42;;;13.60;99.90;;;;;;4975195;28;20046;-75
2022/06/16 03:22:05;;;;;;;8.70;3.35;;;13.60;99.90;;;;;;4977591;28;20115;-76
2022/06/16 03:24:31;;;;;;;5.15;2.97;;;13.50;99.90;;;;;;4975207;28;20038;-76
2022/06/16 03:26:57;;;;;;;6.22;3.00;;;13.60;99.90;;;;;;4983104;28;20145;-76
2022/06/16 03:29:23;;;;;;;6.00;2.92;;;13.50;99.90;;;;;;5003203;28;20129;-76
2022/06/16 03:31:49;;;;;;;6.70;3.40;;;13.50;99.90;;;;;;4979139;28;20046;-76
2022/06/16 03:34:14;;;;;;;6.93;3.08;;;13.50;99.90;;;;;;4981259;28;20119;-76
2022/06/16 03:36:40;;;;;;;6.65;3.40;;;13.50;99.90;;;;;;4981723;28;20245;-76
2022/06/16 03:39:06;;;;;;;9.82;3.35;;;13.50;99.90;;;;;;4979554;28;20070;-76
2022/06/16 03:41:34;;;;;;;5.85;3.17;;;13.50;99.90;;;;;;4980702;28;20117;-76
2022/06/16 03:43:59;;;;;;;9.32;3.40;;;13.60;99.90;;;;;;4980563;28;20035;-76
2022/06/16 03:46:25;;;;;;;11.80;3.95;;;13.50;99.90;;;;;;4980452;28;20056;-76
2022/06/16 03:48:54;;;;;;;7.43;3.50;;;13.60;99.90;;;;;;4981004;28;20434;-75
2022/06/16 03:51:20;;;;;;;7.50;3.42;;;13.50;99.90;;;;;;4979927;28;20042;-75
2022/06/16 03:53:46;;;;;;;12.85;3.70;;;13.60;99.90;;;;;;4976383;28;20073;-75
2022/06/16 03:56:12;;;;;;;5.95;3.58;;;13.50;99.90;;;;;;4977175;28;20034;-75
2022/06/16 03:58:39;;;;;;;5.97;3.55;;;13.50;99.90;;;;;;4983298;28;20046;-76
2022/06/16 04:01:07;;;;;;;6.93;3.45;;;13.50;99.90;;;;;;4975256;28;20510;-76
2022/06/16 04:06:18;;;;;;;6.72;3.60;;;13.50;99.90;;;;;;5003452;28;20047;-76
2022/06/16 04:08:44;;;;;;;5.15;3.20;;;13.60;99.90;;;;;;5007462;28;20065;-75
2022/06/16 04:11:28;;;;;;;6.80;3.38;;;13.60;99.90;;;;;;4980655;28;20039;-76
2022/06/16 04:14:07;;;;;;;9.10;3.90;;;13.60;99.90;;;;;;4977124;28;20120;-76
2022/06/16 04:16:39;;;;;;;9.45;4.10;;;13.70;99.90;;;;;;4976641;28;20088;-75
2022/06/16 04:19:06;;;;;;;6.32;3.58;;;13.70;99.90;;;;;;4979582;28;20078;-76
2022/06/16 04:21:40;;;;;;;8.90;3.33;;;13.80;99.90;;;;;;4982386;28;20055;-76
2022/06/16 04:24:06;;;;;;;6.15;3.38;;;13.70;99.90;;;;;;4982924;28;20481;-74
2022/06/16 04:26:37;;;;;;;8.55;3.45;;;13.80;99.90;;;;;;4973628;28;20055;-74
2022/06/16 04:29:07;;;;;;;6.57;3.70;;;13.80;99.90;;;;;;4979470;28;20045;-75
2022/06/16 04:31:33;;;;;;;5.60;3.10;;;13.80;99.90;;;;;;4979944;28;20091;-75
2022/06/16 04:33:58;;;;;;;6.40;3.40;;;13.80;99.90;;;;;;4977256;28;20137;-75
2022/06/16 04:36:24;;;;;;;6.20;3.67;;;13.90;99.90;;;;;;4976008;28;20136;-75
2022/06/16 04:38:50;;;;;;;8.80;3.55;;;13.90;99.90;;;;;;4978021;28;20075;-74
2022/06/16 04:41:16;;;;;;;9.88;3.55;;;13.90;99.90;;;;;;4981063;28;20043;-74
2022/06/16 04:43:42;;;;;;;5.68;3.28;;;13.90;99.90;;;;;;4984640;28;20442;-75
2022/06/16 04:46:08;;;;;;;6.47;3.80;;;14.00;99.90;;;;;;4973137;28;20038;-75
2022/06/16 04:48:36;;;;;;;5.30;2.83;;;14.10;99.90;;;;;;4977409;28;20113;-75
2022/06/16 04:51:03;;;;;;;7.85;3.63;;;14.10;99.90;;;;;;4977116;28;20049;-76
2022/06/16 04:53:30;;;;;;;7.50;3.63;;;14.10;99.90;;;;;;4982281;28;20042;-75
2022/06/16 04:55:57;;;;;;;9.23;4.03;;;14.20;99.90;;;;;;4975699;28;20053;-75
2022/06/16 04:58:24;;;;;;;6.75;3.50;;;14.30;99.90;;;;;;4970240;28;20050;-75
2022/06/16 05:00:52;;;;;;;8.07;3.38;;;14.40;99.90;;;;;;4973782;28;20047;-75
2022/06/16 05:03:19;;;;;;;9.88;3.90;;;14.50;99.90;;;;;;4976162;28;20056;-75
2022/06/16 05:05:46;;;;;;;8.05;3.88;;;14.60;99.90;;;;;;4983403;28;20041;-75
2022/06/16 05:08:13;;;;;;;8.07;4.00;;;14.60;99.90;;;;;;4966375;28;20073;-75
2022/06/16 05:10:39;;;;;;;6.82;3.78;;;14.70;99.90;;;;;;4972545;28;20061;-76
2022/06/16 05:13:05;;;;;;;9.38;3.65;;;14.80;99.90;;;;;;4977588;28;20169;-76
2022/06/16 05:15:30;;;;;;;9.10;3.90;;;14.90;99.90;;;;;;4973411;28;20282;-75
2022/06/16 05:17:56;;;;;;;9.50;3.67;;;15.00;99.90;;;;;;4979549;28;20043;-74
2022/06/16 05:20:22;;;;;;;8.00;2.83;;;15.00;99.90;;;;;;4980422;28;20057;-76
2022/06/16 05:22:47;;;;;;;5.97;2.60;;;15.20;99.90;;;;;;4981549;28;20151;-75
2022/06/16 05:25:13;;;;;;;6.40;2.40;;;15.20;99.90;;;;;;4968063;28;20054;-76
2022/06/16 05:27:38;;;;;;;7.65;2.20;;;15.30;99.90;;;;;;4976580;28;20041;-75
2022/06/16 05:30:05;;;;;;;5.60;2.45;;;15.40;99.90;;;;;;4972047;28;20051;-76
2022/06/16 05:32:31;;;;;;;4.63;2.00;;;15.40;99.90;;;;;;4982164;28;20088;-76
2022/06/16 05:34:56;;;;;;;5.15;1.70;;;15.50;99.90;;;;;;4969815;28;20583;-76
2022/06/16 05:37:22;;;;;;;8.43;2.10;;;15.50;99.90;;;;;;4971220;28;20059;-76
2022/06/16 05:39:49;;;;;;;5.47;2.00;;;15.40;99.90;;;;;;4979003;28;20125;-76
2022/06/16 05:42:15;;;;;;;6.50;2.05;;;15.60;99.90;;;;;;4975835;28;20049;-75
2022/06/16 05:44:41;;;;;;;5.50;1.60;;;15.60;99.90;;;;;;4978894;28;20042;-76
2022/06/16 05:47:07;;;;;;;5.85;2.15;;;15.60;99.90;;;;;;4980388;28;20243;-76
2022/06/16 05:49:38;;;;;;;5.32;1.80;;;15.70;99.90;;;;;;4978128;28;20034;-76
2022/06/16 05:52:18;;;;;;;6.43;2.30;;;15.70;99.90;;;;;;4982741;28;20053;-76
2022/06/16 05:54:44;;;;;;;5.57;2.17;;;15.80;99.90;;;;;;4975051;28;20793;-75
2022/06/16 05:57:10;;;;;;;3.90;1.95;;;15.80;99.90;;;;;;4976722;28;20046;-76
2022/06/16 05:59:37;;;;;;;3.30;1.85;;;15.90;99.90;;;;;;4979646;28;20478;-76
2022/06/16 06:02:13;;;;;;;8.50;1.88;;;15.90;99.90;;;;;;4973280;28;20038;-75
2022/06/16 06:04:38;;;;;;;7.88;1.83;;;15.90;99.90;;;;;;4981459;28;20466;-76
2022/06/16 06:07:04;;;;;;;7.20;1.90;;;15.90;99.90;;;;;;4974037;28;20062;-76
2022/06/16 06:18:00;;;;;;;5.28;1.98;;;16.10;99.90;;;;;;4976005;28;20076;-76
2022/06/16 06:20:25;;;;;;;8.90;2.50;;;16.10;99.90;;;;;;4978254;28;20066;-76
2022/06/16 06:22:51;;;;;;;6.30;2.25;;;16.20;99.90;;;;;;4971151;28;20486;-76
2022/06/16 06:25:17;;;;;;;9.23;2.47;;;16.20;99.90;;;;;;4978838;28;20122;-76
2022/06/16 06:27:45;;;;;;;8.05;2.65;;;16.20;99.90;;;;;;4970722;28;20103;-77
2022/06/16 06:30:17;;;;;;;7.60;2.40;;;16.30;99.90;;;;;;4975063;28;20051;-77
2022/06/16 06:32:43;;;;;;;5.78;2.28;;;16.20;99.90;;;;;;4977167;28;20115;-76
2022/06/16 06:35:10;;;;;;;7.50;2.58;;;16.30;99.90;;;;;;4971210;28;20042;-76
2022/06/16 06:37:36;;;;;;;8.88;2.50;;;16.30;99.90;;;;;;4973953;28;20054;-77
2022/06/16 06:40:02;;;;;;;5.07;1.95;;;16.40;99.90;;;;;;5003746;28;20391;-77
2022/06/16 06:42:27;;;;;;;5.35;1.80;;;16.40;99.90;;;;;;4971682;28;20092;-77
2022/06/16 06:44:53;;;;;;;4.28;2.40;;;16.40;99.90;;;;;;4975377;28;20627;-77
2022/06/16 06:47:34;;;;;;;5.80;1.95;;;16.50;99.90;;;;;;4976664;28;20784;-76
2022/06/16 06:50:00;;;;;;;5.28;1.98;;;16.50;99.90;;;;;;4977959;28;20414;-76
2022/06/16 06:52:27;;;;;;;5.93;1.65;;;16.60;99.90;;;;;;4978048;28;20125;-76
2022/06/16 06:54:53;;;;;;;4.75;1.50;;;16.60;99.90;;;;;;4984323;28;20044;-77
2022/06/16 06:57:27;;;;;;;3.92;1.73;;;16.60;99.90;;;;;;4980587;28;20580;-75
2022/06/16 06:59:54;;;;;;;5.57;1.65;;;16.70;99.90;;;;;;4978249;28;20515;-75
2022/06/16 07:02:20;;;;;;;8.30;2.15;;;16.70;99.90;;;;;;4975893;28;20054;-75
2022/06/16 07:04:46;;;;;;;8.73;2.53;;;16.80;99.90;;;;;;4985973;28;20088;-75
2022/06/16 07:07:20;;;;;;;4.70;1.88;;;16.80;99.90;;;;;;4981111;28;20699;-75
2022/06/16 07:09:45;;;;;;;2.97;1.77;;;17.00;99.90;;;;;;4983857;28;20077;-75
2022/06/16 07:12:15;;;;;;;4.53;1.65;;;16.90;99.90;;;;;;4985668;28;20050;-75
2022/06/16 07:14:43;;;;;;;8.65;2.05;;;16.90;99.90;;;;;;4985137;28;20172;-75
2022/06/16 07:17:09;;;;;;;9.40;3.30;;;16.90;99.90;;;;;;4981494;28;20046;-76
2022/06/16 07:19:35;;;;;;;9.20;2.60;;;16.90;99.90;;;;;;4976351;28;20562;-77
2022/06/16 07:22:03;;;;;;;4.70;1.77;;;17.00;99.90;;;;;;4978725;28;20050;-75
2022/06/16 07:24:28;;;;;;;8.75;1.92;;;17.00;99.90;;;;;;4977901;28;20091;-78
2022/06/16 07:26:54;;;;;;;7.65;2.15;;;17.10;99.90;;;;;;4983693;28;20141;-75
2022/06/16 07:29:20;;;;;;;5.63;2.17;;;17.00;99.90;;;;;;4982063;28;20176;-76
2022/06/16 07:31:45;;;;;;;6.25;2.13;;;17.10;99.90;;;;;;4990975;28;20038;-75
2022/06/16 07:34:11;;;;;;;7.18;2.08;;;17.10;99.90;;;;;;4977019;28;21181;-76
2022/06/16 07:36:37;;;;;;;5.22;1.50;;;17.10;99.90;;;;;;4983886;28;20536;-76
2022/06/16 07:39:04;;;;;;;5.72;1.80;;;17.10;99.90;;;;;;4978882;28;20030;-76
2022/06/16 07:41:36;;;;;;;7.03;1.90;;;17.10;99.90;;;;;;4987338;28;20046;-75
2022/06/16 07:44:13;;;;;;;4.88;1.80;;;17.20;99.90;;;;;;4985755;28;20050;-76
2022/06/16 07:46:44;;;;;;;9.88;2.22;;;17.20;99.90;;;;;;4983875;28;20074;-76
2022/06/16 07:49:16;;;;;;;4.45;1.50;;;17.30;99.90;;;;;;5014285;28;20042;-76
2022/06/16 07:51:42;;;;;;;4.60;1.50;;;17.30;99.90;;;;;;4985259;28;20393;-77
2022/06/16 07:54:10;;;;;;;3.80;1.38;;;17.30;99.90;;;;;;4984311;28;20577;-76
2022/06/16 07:56:39;;;;;;;4.97;1.40;;;17.40;99.90;;;;;;4981042;28;20054;-75
2022/06/16 07:59:04;;;;;;;6.57;1.50;;;17.40;99.90;;;;;;4976701;28;20137;-76
2022/06/16 08:01:30;;;;;;;7.20;1.80;;;17.40;99.90;;;;;;4975650;28;20054;-75
2022/06/16 08:03:56;;;;;;;3.20;1.60;;;17.40;99.90;;;;;;4981345;28;20042;-76
2022/06/16 08:06:27;;;;;;;6.68;1.80;;;17.50;99.90;;;;;;4982832;28;20050;-75
2022/06/16 08:08:54;;;;;;;6.50;1.63;;;17.50;99.90;;;;;;4975817;28;20506;-76
2022/06/16 08:14:04;;;;;;;4.30;1.77;;;17.60;99.90;;;;;;4980094;28;20130;-75
2022/06/16 08:16:30;;;;;;;4.97;1.70;;;17.70;99.90;;;;;;4982083;28;20046;-75
2022/06/16 08:18:57;;;;;;;3.78;1.40;;;17.70;99.90;;;;;;4979648;28;20047;-76
2022/06/16 08:21:22;;;;;;;7.28;1.73;;;17.70;99.90;;;;;;4983854;28;20065;-75
2022/06/16 08:23:48;;;;;;;4.88;1.63;;;17.80;99.90;;;;;;4978024;28;20035;-76
2022/06/16 08:26:14;;;;;;;3.17;1.40;;;17.80;99.90;;;;;;4984079;28;20546;-76
2022/06/16 08:28:40;;;;;;;6.88;2.00;;;17.80;99.90;;;;;;4978522;28;20134;-76
2022/06/16 08:31:09;;;;;;;4.35;1.58;;;17.90;99.90;;;;;;4981249;28;20050;-76
2022/06/16 08:33:35;;;;;;;9.43;2.20;;;18.00;99.90;;;;;;4976028;28;20042;-77
2022/06/16 08:36:01;;;;;;;10.20;2.20;;;18.00;99.90;;;;;;4980768;28;20133;-76
2022/06/16 08:38:27;;;;;;;6.97;2.17;;;18.10;99.90;;;;;;4981290;28;20172;-76
2022/06/16 08:41:12;;;;;;;4.85;1.60;;;18.10;99.90;;;;;;4979162;28;20104;-76
2022/06/16 08:44:15;;;;;;;4.88;1.95;;;18.10;99.90;;;;;;4977930;28;20626;-76
2022/06/16 08:47:09;;;;;;;6.63;2.22;;;18.20;99.90;;;;;;4974180;28;20057;-76
2022/06/16 08:49:52;;;;;;;3.72;1.60;;;18.20;99.90;;;;;;4983810;28;21581;-75
2022/06/16 08:52:43;;;;;;;4.78;1.77;;;18.30;99.90;;;;;;4972191;28;20481;-76
2022/06/16 08:55:18;;;;;;;3.13;1.40;;;18.40;99.90;;;;;;4974580;28;20157;-76
2022/06/16 08:57:52;;;;;;;6.50;2.00;;;18.50;99.90;;;;;;4978278;28;20051;-77
2022/06/16 09:00:42;;;;;;;8.10;1.95;;;18.60;99.90;;;;;;4970337;28;20113;-76
2022/06/16 09:03:13;;;;;;;7.28;1.80;;;18.70;99.90;;;;;;4969656;28;20058;-76
2022/06/16 09:06:10;;;;;;;4.57;2.13;;;18.80;99.90;;;;;;4968498;28;20100;-75
2022/06/16 09:08:57;;;;;;;2.55;1.50;;;18.80;99.90;;;;;;5002803;28;20119;-77
2022/06/16 09:11:54;;;;;;;6.07;2.30;;;18.90;99.90;;;;;;4982159;28;20046;-77
2022/06/16 09:17:42;;;;;;;8.32;1.83;;;19.00;99.50;;;;;;4969333;28;20079;-77
2022/06/16 09:20:29;;;;;;;3.53;1.70;;;19.00;99.10;;;;;;4969185;28;20474;-75
2022/06/16 09:23:40;;;;;;;3.80;1.90;;;19.10;98.50;;;;;;4971433;28;20053;-78
2022/06/16 09:26:18;;;;;;;4.47;1.77;;;19.10;98.00;;;;;;4963504;28;20410;-78
2022/06/16 09:28:46;;;;;;;4.70;1.65;;;19.10;98.20;;;;;;4975690;28;20082;-75
2022/06/16 09:31:18;;;;;;;4.47;1.83;;;19.20;97.90;;;;;;4975955;28;20117;-77
2022/06/16 09:33:48;;;;;;;7.78;2.00;;;19.20;98.00;;;;;;4972600;28;20043;-77
2022/06/16 09:36:29;;;;;;;5.65;1.67;;;19.30;97.50;;;;;;4969788;28;20055;-76
2022/06/16 09:39:34;;;;;;;4.75;1.77;;;19.30;97.50;;;;;;4976479;28;20061;-76
2022/06/16 09:45:09;;;;;;;5.15;1.92;;;19.40;97.20;;;;;;4976651;28;20042;-76
2022/06/16 09:47:46;;;;;;;7.78;1.77;;;19.40;97.10;;;;;;5001088;28;20051;-78
2022/06/16 09:50:32;;;;;;;6.20;1.80;;;19.40;97.40;;;;;;4985260;28;20057;-79
2022/06/16 09:53:18;;;;;;;5.20;2.03;;;19.50;97.50;;;;;;4982423;28;20386;-80
2022/06/16 09:56:03;;;;;;;8.30;2.20;;;19.50;97.40;;;;;;5008292;28;20055;-80
2022/06/16 09:58:47;;;;;;;3.53;2.28;;;19.50;97.10;;;;;;4976249;28;20398;-77
2022/06/16 10:01:16;;;;;;;4.45;2.10;;;19.50;97.10;;;;;;4978265;28;20091;-77
2022/06/16 10:04:00;;;;;;;5.88;2.40;;;19.60;96.70;;;;;;4978188;28;20054;-81
2022/06/16 10:06:48;;;;;;;6.00;1.85;;;19.60;96.70;;;;;;4972453;28;20046;-78
2022/06/16 10:09:23;;;;;;;4.93;1.80;;;19.60;96.30;;;;;;4974149;28;20078;-79
2022/06/16 10:11:57;;;;;;;4.78;2.20;;;19.60;96.00;;;;;;4978663;28;20043;-80
2022/06/16 10:14:28;;;;;;;4.28;2.30;;;19.70;96.10;;;;;;4974649;28;20563;-78
2022/06/16 10:16:59;;;;;;;4.45;2.13;;;19.80;95.80;;;;;;4971660;28;20042;-77
2022/06/16 10:19:28;;;;;;;;;;;19.80;94.70;;;;;;4975358;28;20066;-79
2022/06/16 10:22:01;;;;;;;4.10;2.10;;;19.80;95.30;;;;;;5002080;28;19925;-78
2022/06/16 10:24:38;;;;;;;8.60;2.50;;;19.80;94.90;;;;;;4966770;28;20461;-78
2022/06/16 10:27:04;;;;;;;3.25;2.15;;;19.90;94.40;;;;;;4966490;28;20046;-81
2022/06/16 10:29:33;;;;;;;5.43;2.33;;;19.90;94.50;;;;;;4967537;28;20042;-80
2022/06/16 10:32:00;;;;;;;3.72;1.92;;;19.90;94.30;;;;;;4969527;28;20038;-80
2022/06/16 10:34:39;;;;;;;6.93;2.75;;;20.00;94.10;;;;;;4973965;28;20049;-80
2022/06/16 10:37:22;;;;;;;5.63;2.50;;;20.10;94.00;;;;;;4967064;28;20047;-80
2022/06/16 10:40:05;;;;;;;6.18;2.67;;;20.20;93.90;;;;;;4968644;28;20432;-80
2022/06/16 10:42:41;;;;;;;5.22;2.53;;;20.20;93.80;;;;;;4970453;28;20135;-80
2022/06/16 10:45:20;;;;;;;7.18;2.60;;;20.20;93.50;;;;;;4973355;28;20091;-80
2022/06/16 10:47:57;;;;;;;9.60;2.40;;;20.20;93.40;;;;;;4969315;28;20035;-79
2022/06/16 10:50:35;;;;;;;5.00;2.17;;;20.30;92.70;;;;;;4971062;28;20043;-79
2022/06/16 10:53:04;;;;;;;8.65;2.50;;;20.30;92.00;;;;;;4973547;28;20050;-77
2022/06/16 10:55:41;;;;;;;6.57;2.70;;;20.40;92.30;;;;;;4978348;28;20117;-78
2022/06/16 10:58:20;;;;;;;5.80;2.60;;;20.40;91.90;;;;;;4968397;28;20093;-76
2022/06/16 11:01:17;;;;;;;4.15;3.00;;;20.50;91.70;;;;;;4970762;28;20043;-75
2022/06/16 11:04:02;;;;;;;5.43;2.35;;;20.50;91.60;;;;;;4982259;28;20355;-75
2022/06/16 11:06:29;;;;;;;13.15;2.53;;;20.50;91.90;;;;;;4972753;28;20714;-77
2022/06/16 11:09:03;;;;;;;4.50;2.00;;;20.60;91.60;;;;;;4971236;28;20058;-76
2022/06/16 11:11:41;;;;;;;9.70;2.17;;;20.70;91.50;;;;;;4971884;28;20051;-77
2022/06/16 11:14:17;;;;;;;6.18;2.50;;;20.80;92.00;;;;;;4979569;28;20043;-77
2022/06/16 11:16:51;;;;;;;5.10;2.60;;;20.90;92.20;;;;;;4971148;28;20138;-75
2022/06/16 11:19:36;;;;;;;3.13;1.95;;;21.00;91.50;;;;;;4974686;28;20149;-75
2022/06/16 11:22:16;;;;;;;6.03;2.65;;;21.00;91.20;;;;;;4967391;28;20744;-74
2022/06/16 11:24:59;;;;;;;4.90;2.30;;;21.00;90.70;;;;;;4972556;28;20134;-75
2022/06/16 11:27:24;;;;;;;4.60;2.50;;;21.10;90.10;;;;;;4968186;28;20493;-75
2022/06/16 11:29:50;;;;;;;3.53;2.08;;;21.10;89.60;;;;;;4980655;28;20038;-75
2022/06/16 11:32:28;;;;;;;6.00;1.80;;;21.20;89.70;;;;;;4995912;28;20047;-75
2022/06/16 11:34:54;;;;;;;26.90;3.03;;;21.30;88.90;;;;;;4980391;28;20035;-75
2022/06/16 11:38:11;;;;;;;3.95;1.73;;;21.40;89.40;;;;;;4967876;28;20063;-75
2022/06/16 11:41:07;;;;;;;6.18;2.42;;;21.50;86.50;;;;;;5033491;28;20427;-75
2022/06/16 11:43:52;;;;;;;3.75;1.90;;;21.50;84.40;;;;;;4973625;28;20118;-72
2022/06/16 11:46:29;;;;;;;3.58;1.95;;;21.60;82.40;;;;;;4982069;28;20400;-73
2022/06/16 11:49:16;;;;;;;4.00;2.30;;;21.60;81.20;;;;;;4973962;28;20047;-74
2022/06/16 11:51:57;;;;;;;5.47;2.38;;;21.60;80.70;;;;;;4977330;28;20596;-73
2022/06/16 11:54:41;;;;;;;5.53;2.08;;;21.70;80.40;;;;;;4984700;28;20125;-73
2022/06/16 11:57:25;;;;;;;4.60;1.90;;;21.70;79.80;;;;;;4986425;28;20046;-75
2022/06/16 12:00:15;;;;;;;13.23;2.85;;;21.80;80.90;;;;;;4994418;28;20050;-74
2022/06/16 12:03:22;;;;;;;7.07;2.40;;;21.80;79.60;;;;;;4969291;28;20453;-75
2022/06/16 12:06:04;;;;;;;8.25;2.20;;;21.90;78.70;;;;;;5000607;28;20059;-75
2022/06/16 12:08:48;;;;;;;6.85;2.63;;;21.90;78.50;;;;;;4968200;28;20059;-75
2022/06/16 12:11:23;;;;;;;3.90;2.17;;;22.00;78.70;;;;;;4976323;28;20089;-76
2022/06/16 12:13:57;;;;;;;7.95;2.42;;;22.00;78.40;;;;;;4977644;28;20050;-75
2022/06/16 12:16:27;;;;;;;9.63;2.85;;;22.00;78.40;;;;;;4976277;28;20129;-75
2022/06/16 12:19:01;;;;;;;4.05;1.85;;;22.10;78.20;;;;;;4984786;28;20113;-75
2022/06/16 12:21:53;;;;;;;5.03;2.13;;;22.20;78.10;;;;;;4975675;28;20050;-75
2022/06/16 12:24:33;;;;;;;4.72;1.95;;;22.20;77.90;;;;;;4984840;28;20045;-75
2022/06/16 12:27:05;;;;;;;4.40;2.10;;;22.30;78.10;;;;;;4980965;28;20038;-75
2022/06/16 12:29:41;;;;;;;6.13;2.20;;;22.40;77.90;;;;;;4975236;28;20969;-75
2022/06/16 12:32:22;;;;;;;4.43;2.00;;;22.50;78.00;;;;;;4967783;28;20447;-75
2022/06/16 12:35:13;;;;;;;5.00;1.92;;;22.60;78.00;;;;;;4976314;28;20108;-75
2022/06/16 12:37:45;;;;;;;4.15;1.80;;;22.80;76.40;;;;;;4974584;28;20042;-75
2022/06/16 12:40:19;;;;;;;4.10;2.00;;;22.80;75.50;;;;;;4978413;28;20030;-75
2022/06/16 12:42:51;;;;;;;5.68;2.25;;;22.80;74.50;;;;;;4969513;28;20196;-76
2022/06/16 12:45:31;;;;;;;8.45;2.58;;;22.90;74.80;;;;;;4970158;28;20065;-77
2022/06/16 12:48:07;;;;;;;4.95;2.08;;;22.90;73.10;;;;;;4978154;28;20050;-75
2022/06/16 12:50:37;;;;;;;6.15;2.58;;;22.90;73.40;;;;;;4967425;28;20108;-75
2022/06/16 12:53:14;;;;;;;5.50;2.03;;;22.90;73.60;;;;;;4980760;28;20470;-76
2022/06/16 12:55:52;;;;;;;10.18;2.20;;;23.00;73.10;;;;;;4987383;28;20058;-76
2022/06/16 12:58:26;;;;;;;24.38;2.80;;;23.00;73.40;;;;;;4987558;28;20043;-75
2022/06/16 13:00:54;;;;;;;11.85;2.42;;;23.10;73.50;;;;;;4987329;28;20078;-75
2022/06/16 13:03:31;;;;;;;6.28;2.00;;;23.20;73.00;;;;;;4988319;28;20046;-75
2022/06/16 13:05:57;;;;;;;5.80;2.60;;;23.20;72.90;;;;;;4978542;28;20150;-75
2022/06/16 13:08:26;;;;;;;7.43;2.22;;;23.20;73.10;;;;;;4969871;28;20498;-77
2022/06/16 13:11:07;;;;;;;6.85;2.15;;;23.30;72.60;;;;;;4987114;28;20050;-76
2022/06/16 13:14:07;;;;;;;5.00;1.90;;;23.30;71.40;;;;;;4992997;28;20569;-77
2022/06/16 13:16:38;;;;;;;6.13;2.30;;;23.30;71.90;;;;;;5010855;28;20054;-76
2022/06/16 13:19:21;;;;;;;;;;;23.20;72.10;;;;;;4967700;28;20122;-77
2022/06/16 13:22:00;;;;;;;11.75;2.28;;;23.20;72.50;;;;;;4966440;28;19933;-75
2022/06/16 13:25:10;;;;;;;7.72;2.40;;;23.20;73.40;;;;;;4972887;28;20521;-75
2022/06/16 13:27:39;;;;;;;4.63;2.20;;;23.20;73.00;;;;;;5026930;28;20545;-75
2022/06/16 13:30:04;;;;;;;4.32;2.00;;;23.30;71.60;;;;;;5059717;28;20133;-76
2022/06/16 13:33:00;;;;;;;4.53;2.03;;;23.30;71.60;;;;;;5004976;28;20050;-75
2022/06/16 13:35:32;;;;;;;7.03;2.38;;;23.30;71.60;;;;;;4984913;28;20112;-76
2022/06/16 13:38:04;;;;;;;5.88;2.42;;;23.40;72.70;;;;;;4972399;28;20039;-77
2022/06/16 13:40:40;;;;;;;5.63;2.17;;;23.40;70.10;;;;;;4981052;28;20088;-75
2022/06/16 13:43:17;;;;;;;5.15;2.72;;;23.40;70.00;;;;;;4980082;28;20043;-75
2022/06/16 13:45:52;;;;;;;3.22;1.70;;;23.40;69.30;;;;;;4973808;28;20054;-75